sensor_id;sensor_type;location;lat;lon;timestamp;temperature;humidity
23827;DHT22;12094;50.822;4.376;2023-09-07T00:01:07;21.70;99.90
23827;DHT22;12094;50.822;4.376;2023-09-07T00:03:38;21.70;99.90
23827;DHT22;12094;50.822;4.376;2023-09-07T00:06:10;21.60;99.90
23827;DHT22;12094;50.822;4.376;2023-09-07T00:08:38;21.60;99.90
23827;DHT22;12094;50.822;4.376;2023-09-07T00:11:08;21.50;99.90
23827;DHT22;12094;50.822;4.376;2023-09-07T00:13:41;21.40;99.90
23827;DHT22;12094;50.822;4.376;2023-09-07T00:16:09;21.40;99.90
23827;DHT22;12094;50.822;4.376;2023-09-07T00:18:38;21.40;99.90
23827;DHT22;12094;50.822;4.376;2023-09-07T00:21:08;21.40;99.90
23827;DHT22;12094;50.822;4.376;2023-09-07T00:23:36;21.50;99.90
23827;DHT22;12094;50.822;4.376;2023-09-07T00:26:03;21.50;99.90
23827;DHT22;12094;50.822;4.376;2023-09-07T00:28:32;21.50;99.90
23827;DHT22;12094;50.822;4.376;2023-09-07T00:30:59;21.50;99.90
23827;DHT22;12094;50.822;4.376;2023-09-07T00:33:26;21.40;99.90
23827;DHT22;12094;50.822;4.376;2023-09-07T00:35:53;21.30;99.90
23827;DHT22;12094;50.822;4.376;2023-09-07T00:38:20;21.40;99.90
23827;DHT22;12094;50.822;4.376;2023-09-07T00:40:48;21.50;99.90
23827;DHT22;12094;50.822;4.376;2023-09-07T00:43:16;21.40;99.90
23827;DHT22;12094;50.822;4.376;2023-09-07T00:45:44;21.40;99.90
23827;DHT22;12094;50.822;4.376;2023-09-07T00:48:14;21.40;99.90
23827;DHT22;12094;50.822;4.376;2023-09-07T00:50:43;21.40;99.90
23827;DHT22;12094;50.822;4.376;2023-09-07T00:53:11;21.30;99.90
23827;DHT22;12094;50.822;4.376;2023-09-07T00:55:39;21.30;99.90
23827;DHT22;12094;50.822;4.376;2023-09-07T00:58:06;21.30;99.90
23827;DHT22;12094;50.822;4.376;2023-09-07T01:00:35;21.40;99.90
23827;DHT22;12094;50.822;4.376;2023-09-07T01:03:05;21.40;99.90
23827;DHT22;12094;50.822;4.376;2023-09-07T01:08:46;21.40;99.90
23827;DHT22;12094;50.822;4.376;2023-09-07T01:11:17;21.30;99.90
23827;DHT22;12094;50.822;4.376;2023-09-07T01:13:50;21.30;99.90
23827;DHT22;12094;50.822;4.376;2023-09-07T01:16:24;21.20;99.90
23827;DHT22;12094;50.822;4.376;2023-09-07T01:18:54;21.10;99.90
23827;DHT22;12094;50.822;4.376;2023-09-07T01:21:22;21.00;99.90
23827;DHT22;12094;50.822;4.376;2023-09-07T01:23:52;21.00;99.90
23827;DHT22;12094;50.822;4.376;2023-09-07T01:26:19;21.00;99.90
23827;DHT22;12094;50.822;4.376;2023-09-07T01:28:46;20.90;99.90
23827;DHT22;12094;50.822;4.376;2023-09-07T01:31:16;20.90;99.90
23827;DHT22;12094;50.822;4.376;2023-09-07T01:33:44;20.90;99.90
23827;DHT22;12094;50.822;4.376;2023-09-07T01:36:11;20.90;99.90
23827;DHT22;12094;50.822;4.376;2023-09-07T01:38:40;20.80;99.90
23827;DHT22;12094;50.822;4.376;2023-09-07T01:41:07;20.80;99.90
23827;DHT22;12094;50.822;4.376;2023-09-07T01:43:37;20.80;99.90
23827;DHT22;12094;50.822;4.376;2023-09-07T01:46:04;20.70;99.90
23827;DHT22;12094;50.822;4.376;2023-09-07T01:48:31;20.70;99.90
23827;DHT22;12094;50.822;4.376;2023-09-07T01:50:59;20.70;99.90
23827;DHT22;12094;50.822;4.376;2023-09-07T01:53:31;20.60;99.90
23827;DHT22;12094;50.822;4.376;2023-09-07T01:55:59;20.60;99.90
23827;DHT22;12094;50.822;4.376;2023-09-07T01:58:26;20.60;99.90
23827;DHT22;12094;50.822;4.376;2023-09-07T02:00:57;20.60;99.90
23827;DHT22;12094;50.822;4.376;2023-09-07T02:03:26;20.60;99.90
23827;DHT22;12094;50.822;4.376;2023-09-07T02:05:56;20.60;99.90
23827;DHT22;12094;50.822;4.376;2023-09-07T02:08:25;20.60;99.90
23827;DHT22;12094;50.822;4.376;2023-09-07T02:10:52;20.60;99.90
23827;DHT22;12094;50.822;4.376;2023-09-07T02:13:24;20.60;99.90
23827;DHT22;12094;50.822;4.376;2023-09-07T02:15:51;20.50;99.90
23827;DHT22;12094;50.822;4.376;2023-09-07T02:18:18;20.50;99.90
23827;DHT22;12094;50.822;4.376;2023-09-07T02:20:48;20.60;99.90
23827;DHT22;12094;50.822;4.376;2023-09-07T02:23:16;20.50;99.90
23827;DHT22;12094;50.822;4.376;2023-09-07T02:25:43;20.40;99.90
23827;DHT22;12094;50.822;4.376;2023-09-07T02:28:14;20.40;99.90
23827;DHT22;12094;50.822;4.376;2023-09-07T02:30:42;20.50;99.90
23827;DHT22;12094;50.822;4.376;2023-09-07T02:33:09;20.40;99.90
23827;DHT22;12094;50.822;4.376;2023-09-07T02:35:38;20.50;99.90
23827;DHT22;12094;50.822;4.376;2023-09-07T02:38:07;20.50;99.90
23827;DHT22;12094;50.822;4.376;2023-09-07T02:40:44;20.40;99.90
23827;DHT22;12094;50.822;4.376;2023-09-07T02:43:19;20.50;99.90
23827;DHT22;12094;50.822;4.376;2023-09-07T02:45:46;20.50;99.90
23827;DHT22;12094;50.822;4.376;2023-09-07T02:48:14;20.50;99.90
23827;DHT22;12094;50.822;4.376;2023-09-07T02:50:42;20.50;99.90
23827;DHT22;12094;50.822;4.376;2023-09-07T02:53:09;20.40;99.90
23827;DHT22;12094;50.822;4.376;2023-09-07T02:55:39;20.40;99.90
23827;DHT22;12094;50.822;4.376;2023-09-07T02:58:07;20.50;99.90
23827;DHT22;12094;50.822;4.376;2023-09-07T03:00:35;20.40;99.90
23827;DHT22;12094;50.822;4.376;2023-09-07T03:03:08;20.20;99.90
23827;DHT22;12094;50.822;4.376;2023-09-07T03:05:40;20.30;99.90
23827;DHT22;12094;50.822;4.376;2023-09-07T03:08:08;20.20;99.90
23827;DHT22;12094;50.822;4.376;2023-09-07T03:10:37;20.20;99.90
23827;DHT22;12094;50.822;4.376;2023-09-07T03:13:07;20.10;99.90
23827;DHT22;12094;50.822;4.376;2023-09-07T03:15:38;20.10;99.90
23827;DHT22;12094;50.822;4.376;2023-09-07T03:18:11;20.10;99.90
23827;DHT22;12094;50.822;4.376;2023-09-07T03:20:43;20.00;99.90
23827;DHT22;12094;50.822;4.376;2023-09-07T03:23:10;19.90;99.90
23827;DHT22;12094;50.822;4.376;2023-09-07T03:25:37;19.90;99.90
23827;DHT22;12094;50.822;4.376;2023-09-07T03:28:08;19.90;99.90
23827;DHT22;12094;50.822;4.376;2023-09-07T03:30:39;19.90;99.90
23827;DHT22;12094;50.822;4.376;2023-09-07T03:33:10;19.90;99.90
23827;DHT22;12094;50.822;4.376;2023-09-07T03:35:38;19.90;99.90
23827;DHT22;12094;50.822;4.376;2023-09-07T03:38:05;20.00;99.90
23827;DHT22;12094;50.822;4.376;2023-09-07T03:40:32;20.00;99.90
23827;DHT22;12094;50.822;4.376;2023-09-07T03:43:00;19.90;99.90
23827;DHT22;12094;50.822;4.376;2023-09-07T03:45:29;19.90;99.90
23827;DHT22;12094;50.822;4.376;2023-09-07T03:47:58;19.80;99.90
23827;DHT22;12094;50.822;4.376;2023-09-07T03:50:27;19.70;99.90
23827;DHT22;12094;50.822;4.376;2023-09-07T03:52:54;19.70;99.90
23827;DHT22;12094;50.822;4.376;2023-09-07T03:55:23;19.80;99.90
23827;DHT22;12094;50.822;4.376;2023-09-07T03:57:53;19.80;99.90
23827;DHT22;12094;50.822;4.376;2023-09-07T04:00:23;19.70;99.90
23827;DHT22;12094;50.822;4.376;2023-09-07T04:02:50;19.70;99.90
23827;DHT22;12094;50.822;4.376;2023-09-07T04:05:18;19.70;99.90
23827;DHT22;12094;50.822;4.376;2023-09-07T04:07:45;19.60;99.90
23827;DHT22;12094;50.822;4.376;2023-09-07T04:10:12;19.50;99.90
23827;DHT22;12094;50.822;4.376;2023-09-07T04:12:40;19.40;99.90
23827;DHT22;12094;50.822;4.376;2023-09-07T04:15:10;19.40;99.90
23827;DHT22;12094;50.822;4.376;2023-09-07T04:17:37;19.40;99.90
23827;DHT22;12094;50.822;4.376;2023-09-07T04:20:08;19.40;99.90
23827;DHT22;12094;50.822;4.376;2023-09-07T04:22:39;19.40;99.90
23827;DHT22;12094;50.822;4.376;2023-09-07T04:25:09;19.50;99.90
23827;DHT22;12094;50.822;4.376;2023-09-07T04:27:36;19.40;99.90
23827;DHT22;12094;50.822;4.376;2023-09-07T04:30:06;19.40;99.90
23827;DHT22;12094;50.822;4.376;2023-09-07T04:32:35;19.60;99.90
23827;DHT22;12094;50.822;4.376;2023-09-07T04:35:06;19.60;99.90
23827;DHT22;12094;50.822;4.376;2023-09-07T04:37:36;19.40;99.90
23827;DHT22;12094;50.822;4.376;2023-09-07T04:40:06;19.40;99.90
23827;DHT22;12094;50.822;4.376;2023-09-07T04:42:34;19.40;99.90
23827;DHT22;12094;50.822;4.376;2023-09-07T04:45:02;19.30;99.90
23827;DHT22;12094;50.822;4.376;2023-09-07T04:47:30;19.30;99.90
23827;DHT22;12094;50.822;4.376;2023-09-07T04:50:00;19.30;99.90
23827;DHT22;12094;50.822;4.376;2023-09-07T04:52:28;19.30;99.90
23827;DHT22;12094;50.822;4.376;2023-09-07T04:54:57;19.40;99.90
23827;DHT22;12094;50.822;4.376;2023-09-07T04:57:25;19.40;99.90
23827;DHT22;12094;50.822;4.376;2023-09-07T04:59:55;19.40;99.90
23827;DHT22;12094;50.822;4.376;2023-09-07T05:02:23;19.50;99.90
23827;DHT22;12094;50.822;4.376;2023-09-07T05:04:50;19.50;99.90
23827;DHT22;12094;50.822;4.376;2023-09-07T05:07:17;19.40;99.90
23827;DHT22;12094;50.822;4.376;2023-09-07T05:09:44;19.30;99.90
23827;DHT22;12094;50.822;4.376;2023-09-07T05:12:12;19.30;99.90
23827;DHT22;12094;50.822;4.376;2023-09-07T05:14:41;19.30;99.90
23827;DHT22;12094;50.822;4.376;2023-09-07T05:17:09;19.30;99.90
23827;DHT22;12094;50.822;4.376;2023-09-07T05:19:39;19.20;99.90
23827;DHT22;12094;50.822;4.376;2023-09-07T05:22:10;19.30;99.90
23827;DHT22;12094;50.822;4.376;2023-09-07T05:24:38;19.30;99.90
23827;DHT22;12094;50.822;4.376;2023-09-07T05:27:13;19.40;99.90
23827;DHT22;12094;50.822;4.376;2023-09-07T05:29:55;19.30;99.90
23827;DHT22;12094;50.822;4.376;2023-09-07T05:32:22;19.40;99.90
23827;DHT22;12094;50.822;4.376;2023-09-07T05:34:50;19.30;99.90
23827;DHT22;12094;50.822;4.376;2023-09-07T05:37:17;19.30;99.90
23827;DHT22;12094;50.822;4.376;2023-09-07T05:39:44;19.30;99.90
23827;DHT22;12094;50.822;4.376;2023-09-07T05:42:12;19.40;99.90
23827;DHT22;12094;50.822;4.376;2023-09-07T05:44:40;19.40;99.90
23827;DHT22;12094;50.822;4.376;2023-09-07T05:47:09;19.50;99.90
23827;DHT22;12094;50.822;4.376;2023-09-07T05:49:37;19.60;99.90
23827;DHT22;12094;50.822;4.376;2023-09-07T05:52:05;19.70;99.90
23827;DHT22;12094;50.822;4.376;2023-09-07T05:54:35;19.70;99.90
23827;DHT22;12094;50.822;4.376;2023-09-07T05:57:12;19.80;99.90
23827;DHT22;12094;50.822;4.376;2023-09-07T05:59:40;19.90;99.90
23827;DHT22;12094;50.822;4.376;2023-09-07T06:02:07;19.80;99.90
23827;DHT22;12094;50.822;4.376;2023-09-07T06:04:35;19.80;99.90
23827;DHT22;12094;50.822;4.376;2023-09-07T06:07:03;19.80;99.90
23827;DHT22;12094;50.822;4.376;2023-09-07T06:09:30;19.90;99.90
23827;DHT22;12094;50.822;4.376;2023-09-07T06:11:58;20.00;99.90
23827;DHT22;12094;50.822;4.376;2023-09-07T06:14:26;20.10;99.90
23827;DHT22;12094;50.822;4.376;2023-09-07T06:16:55;20.10;99.90
23827;DHT22;12094;50.822;4.376;2023-09-07T06:19:22;20.10;99.90
23827;DHT22;12094;50.822;4.376;2023-09-07T06:21:49;20.20;99.90
23827;DHT22;12094;50.822;4.376;2023-09-07T06:24:17;20.30;99.90
23827;DHT22;12094;50.822;4.376;2023-09-07T06:26:44;20.30;99.90
23827;DHT22;12094;50.822;4.376;2023-09-07T06:29:11;20.40;99.90
23827;DHT22;12094;50.822;4.376;2023-09-07T06:31:38;20.50;99.90
23827;DHT22;12094;50.822;4.376;2023-09-07T06:34:06;20.50;99.90
23827;DHT22;12094;50.822;4.376;2023-09-07T06:36:33;20.50;99.90
23827;DHT22;12094;50.822;4.376;2023-09-07T06:39:16;20.60;99.90
23827;DHT22;12094;50.822;4.376;2023-09-07T06:41:46;20.50;99.90
23827;DHT22;12094;50.822;4.376;2023-09-07T06:44:16;20.60;99.90
23827;DHT22;12094;50.822;4.376;2023-09-07T06:46:44;20.70;99.90
23827;DHT22;12094;50.822;4.376;2023-09-07T06:49:12;20.70;99.90
23827;DHT22;12094;50.822;4.376;2023-09-07T06:51:40;20.90;99.90
23827;DHT22;12094;50.822;4.376;2023-09-07T06:54:08;21.10;99.90
23827;DHT22;12094;50.822;4.376;2023-09-07T06:56:35;21.20;99.90
23827;DHT22;12094;50.822;4.376;2023-09-07T06:59:03;21.30;99.90
23827;DHT22;12094;50.822;4.376;2023-09-07T07:01:30;21.30;99.90
23827;DHT22;12094;50.822;4.376;2023-09-07T07:03:58;21.30;99.90
23827;DHT22;12094;50.822;4.376;2023-09-07T07:06:27;21.40;99.90
23827;DHT22;12094;50.822;4.376;2023-09-07T07:08:54;21.40;99.90
23827;DHT22;12094;50.822;4.376;2023-09-07T07:11:21;21.30;99.90
23827;DHT22;12094;50.822;4.376;2023-09-07T07:13:49;21.60;99.90
23827;DHT22;12094;50.822;4.376;2023-09-07T07:16:19;21.60;99.90
23827;DHT22;12094;50.822;4.376;2023-09-07T07:18:46;21.70;99.90
23827;DHT22;12094;50.822;4.376;2023-09-07T07:21:15;21.70;99.90
23827;DHT22;12094;50.822;4.376;2023-09-07T07:23:43;21.80;99.90
23827;DHT22;12094;50.822;4.376;2023-09-07T07:26:10;21.90;99.90
23827;DHT22;12094;50.822;4.376;2023-09-07T07:28:39;22.10;99.90
23827;DHT22;12094;50.822;4.376;2023-09-07T07:31:09;22.20;99.90
23827;DHT22;12094;50.822;4.376;2023-09-07T07:33:40;22.40;99.90
23827;DHT22;12094;50.822;4.376;2023-09-07T07:36:08;22.60;99.90
23827;DHT22;12094;50.822;4.376;2023-09-07T07:38:37;22.70;99.90
23827;DHT22;12094;50.822;4.376;2023-09-07T07:41:06;22.80;99.90
23827;DHT22;12094;50.822;4.376;2023-09-07T07:43:33;22.60;99.90
23827;DHT22;12094;50.822;4.376;2023-09-07T07:46:02;22.50;99.90
23827;DHT22;12094;50.822;4.376;2023-09-07T07:48:32;22.60;99.90
23827;DHT22;12094;50.822;4.376;2023-09-07T07:51:06;22.80;99.90
23827;DHT22;12094;50.822;4.376;2023-09-07T07:53:39;22.80;99.90
23827;DHT22;12094;50.822;4.376;2023-09-07T07:56:15;22.90;99.90
23827;DHT22;12094;50.822;4.376;2023-09-07T07:58:44;23.10;99.90
23827;DHT22;12094;50.822;4.376;2023-09-07T08:01:18;23.20;99.90
23827;DHT22;12094;50.822;4.376;2023-09-07T08:03:50;23.20;99.90
23827;DHT22;12094;50.822;4.376;2023-09-07T08:06:24;23.20;99.90
23827;DHT22;12094;50.822;4.376;2023-09-07T08:08:52;23.30;99.90
23827;DHT22;12094;50.822;4.376;2023-09-07T08:11:21;23.30;99.90
23827;DHT22;12094;50.822;4.376;2023-09-07T08:13:51;23.40;99.90
23827;DHT22;12094;50.822;4.376;2023-09-07T08:16:19;23.40;99.90
23827;DHT22;12094;50.822;4.376;2023-09-07T08:18:49;23.40;99.90
23827;DHT22;12094;50.822;4.376;2023-09-07T08:21:17;23.40;99.90
23827;DHT22;12094;50.822;4.376;2023-09-07T08:23:45;23.70;99.90
23827;DHT22;12094;50.822;4.376;2023-09-07T08:26:14;23.70;99.90
23827;DHT22;12094;50.822;4.376;2023-09-07T08:28:44;23.70;99.90
23827;DHT22;12094;50.822;4.376;2023-09-07T08:31:13;23.80;99.90
23827;DHT22;12094;50.822;4.376;2023-09-07T08:33:50;24.00;99.90
23827;DHT22;12094;50.822;4.376;2023-09-07T08:36:28;24.00;99.90
23827;DHT22;12094;50.822;4.376;2023-09-07T08:38:56;24.10;99.90
23827;DHT22;12094;50.822;4.376;2023-09-07T08:41:28;24.30;99.90
23827;DHT22;12094;50.822;4.376;2023-09-07T08:43:57;24.50;99.90
23827;DHT22;12094;50.822;4.376;2023-09-07T08:46:25;24.50;99.90
23827;DHT22;12094;50.822;4.376;2023-09-07T08:48:54;24.60;99.90
23827;DHT22;12094;50.822;4.376;2023-09-07T08:51:26;24.60;99.90
23827;DHT22;12094;50.822;4.376;2023-09-07T08:53:55;24.80;99.90
23827;DHT22;12094;50.822;4.376;2023-09-07T08:56:24;24.90;99.90
23827;DHT22;12094;50.822;4.376;2023-09-07T08:58:51;24.90;99.90
23827;DHT22;12094;50.822;4.376;2023-09-07T09:01:22;25.00;99.90
23827;DHT22;12094;50.822;4.376;2023-09-07T09:03:50;25.10;99.90
23827;DHT22;12094;50.822;4.376;2023-09-07T09:06:20;25.00;99.90
23827;DHT22;12094;50.822;4.376;2023-09-07T09:08:51;25.00;99.90
23827;DHT22;12094;50.822;4.376;2023-09-07T09:11:24;25.00;99.90
23827;DHT22;12094;50.822;4.376;2023-09-07T09:13:53;25.00;99.90
23827;DHT22;12094;50.822;4.376;2023-09-07T09:16:21;25.00;99.90
23827;DHT22;12094;50.822;4.376;2023-09-07T09:18:53;25.10;99.90
23827;DHT22;12094;50.822;4.376;2023-09-07T09:21:27;25.10;99.90
23827;DHT22;12094;50.822;4.376;2023-09-07T09:23:57;25.10;99.90
23827;DHT22;12094;50.822;4.376;2023-09-07T09:26:25;25.10;99.90
23827;DHT22;12094;50.822;4.376;2023-09-07T09:29:00;25.30;99.90
23827;DHT22;12094;50.822;4.376;2023-09-07T09:31:29;25.30;99.90
23827;DHT22;12094;50.822;4.376;2023-09-07T09:33:58;25.40;99.90
23827;DHT22;12094;50.822;4.376;2023-09-07T09:36:33;25.50;99.90
23827;DHT22;12094;50.822;4.376;2023-09-07T09:39:00;25.60;99.90
23827;DHT22;12094;50.822;4.376;2023-09-07T09:41:27;25.60;99.90
23827;DHT22;12094;50.822;4.376;2023-09-07T09:43:56;25.50;99.90
23827;DHT22;12094;50.822;4.376;2023-09-07T09:46:24;25.50;99.90
23827;DHT22;12094;50.822;4.376;2023-09-07T09:48:52;25.60;99.90
23827;DHT22;12094;50.822;4.376;2023-09-07T09:51:22;25.70;99.90
23827;DHT22;12094;50.822;4.376;2023-09-07T09:53:52;25.80;99.90
23827;DHT22;12094;50.822;4.376;2023-09-07T09:56:21;25.70;99.90
23827;DHT22;12094;50.822;4.376;2023-09-07T09:58:48;25.80;99.90
23827;DHT22;12094;50.822;4.376;2023-09-07T10:01:17;25.90;99.90
23827;DHT22;12094;50.822;4.376;2023-09-07T10:03:47;25.90;99.90
23827;DHT22;12094;50.822;4.376;2023-09-07T10:11:36;26.10;99.90
23827;DHT22;12094;50.822;4.376;2023-09-07T10:14:08;26.10;99.90
23827;DHT22;12094;50.822;4.376;2023-09-07T10:16:47;26.10;99.90
23827;DHT22;12094;50.822;4.376;2023-09-07T10:19:24;26.10;99.90
23827;DHT22;12094;50.822;4.376;2023-09-07T10:21:55;26.10;99.90
23827;DHT22;12094;50.822;4.376;2023-09-07T10:24:33;26.40;99.90
23827;DHT22;12094;50.822;4.376;2023-09-07T10:27:11;26.40;99.90
23827;DHT22;12094;50.822;4.376;2023-09-07T10:29:44;26.40;99.90
23827;DHT22;12094;50.822;4.376;2023-09-07T10:32:22;26.40;99.90
23827;DHT22;12094;50.822;4.376;2023-09-07T10:34:50;26.60;99.90
23827;DHT22;12094;50.822;4.376;2023-09-07T10:37:17;26.80;99.90
23827;DHT22;12094;50.822;4.376;2023-09-07T10:39:45;26.90;99.90
23827;DHT22;12094;50.822;4.376;2023-09-07T10:42:23;26.90;99.90
23827;DHT22;12094;50.822;4.376;2023-09-07T10:44:52;27.00;99.90
23827;DHT22;12094;50.822;4.376;2023-09-07T10:47:25;27.00;99.90
23827;DHT22;12094;50.822;4.376;2023-09-07T10:49:58;27.10;99.90
23827;DHT22;12094;50.822;4.376;2023-09-07T10:52:27;27.20;99.90
23827;DHT22;12094;50.822;4.376;2023-09-07T10:54:57;27.30;99.90
23827;DHT22;12094;50.822;4.376;2023-09-07T10:57:27;27.40;99.90
23827;DHT22;12094;50.822;4.376;2023-09-07T10:59:55;27.30;99.90
23827;DHT22;12094;50.822;4.376;2023-09-07T11:02:23;27.50;99.90
23827;DHT22;12094;50.822;4.376;2023-09-07T11:04:54;27.80;99.90
23827;DHT22;12094;50.822;4.376;2023-09-07T11:07:22;28.00;99.90
23827;DHT22;12094;50.822;4.376;2023-09-07T11:09:54;28.50;99.90
23827;DHT22;12094;50.822;4.376;2023-09-07T11:12:22;28.60;99.90
23827;DHT22;12094;50.822;4.376;2023-09-07T11:14:51;29.30;99.90
23827;DHT22;12094;50.822;4.376;2023-09-07T11:17:28;30.20;99.90
23827;DHT22;12094;50.822;4.376;2023-09-07T11:19:56;30.90;99.90
23827;DHT22;12094;50.822;4.376;2023-09-07T11:22:24;31.40;99.90
23827;DHT22;12094;50.822;4.376;2023-09-07T11:24:51;31.50;99.90
23827;DHT22;12094;50.822;4.376;2023-09-07T11:27:22;31.70;99.90
23827;DHT22;12094;50.822;4.376;2023-09-07T11:29:52;32.30;99.70
23827;DHT22;12094;50.822;4.376;2023-09-07T11:32:23;32.80;98.40
23827;DHT22;12094;50.822;4.376;2023-09-07T11:34:51;33.30;96.90
23827;DHT22;12094;50.822;4.376;2023-09-07T11:37:26;33.00;96.10
23827;DHT22;12094;50.822;4.376;2023-09-07T11:39:53;33.10;95.80
23827;DHT22;12094;50.822;4.376;2023-09-07T11:42:21;32.80;95.50
23827;DHT22;12094;50.822;4.376;2023-09-07T11:44:49;33.00;95.10
23827;DHT22;12094;50.822;4.376;2023-09-07T11:47:17;33.30;94.40
23827;DHT22;12094;50.822;4.376;2023-09-07T11:49:44;33.60;93.20
23827;DHT22;12094;50.822;4.376;2023-09-07T11:52:12;33.50;93.20
23827;DHT22;12094;50.822;4.376;2023-09-07T11:54:39;34.20;91.70
23827;DHT22;12094;50.822;4.376;2023-09-07T11:57:06;34.80;90.90
23827;DHT22;12094;50.822;4.376;2023-09-07T11:59:34;35.00;90.10
23827;DHT22;12094;50.822;4.376;2023-09-07T12:02:23;34.30;90.10
23827;DHT22;12094;50.822;4.376;2023-09-07T12:05:17;34.00;90.40
23827;DHT22;12094;50.822;4.376;2023-09-07T12:07:53;33.70;90.50
23827;DHT22;12094;50.822;4.376;2023-09-07T12:18:04;35.00;85.60
23827;DHT22;12094;50.822;4.376;2023-09-07T12:20:39;35.30;84.70
23827;DHT22;12094;50.822;4.376;2023-09-07T12:23:07;35.20;84.40
23827;DHT22;12094;50.822;4.376;2023-09-07T12:25:35;35.40;84.00
23827;DHT22;12094;50.822;4.376;2023-09-07T12:28:05;35.60;82.50
23827;DHT22;12094;50.822;4.376;2023-09-07T12:30:33;35.50;81.80
23827;DHT22;12094;50.822;4.376;2023-09-07T12:33:00;35.40;82.00
23827;DHT22;12094;50.822;4.376;2023-09-07T12:35:27;34.50;84.20
23827;DHT22;12094;50.822;4.376;2023-09-07T12:37:54;34.40;84.60
23827;DHT22;12094;50.822;4.376;2023-09-07T12:40:23;34.70;82.30
23827;DHT22;12094;50.822;4.376;2023-09-07T12:42:51;34.70;82.30
23827;DHT22;12094;50.822;4.376;2023-09-07T12:45:19;35.00;81.10
23827;DHT22;12094;50.822;4.376;2023-09-07T12:47:47;34.70;81.00
23827;DHT22;12094;50.822;4.376;2023-09-07T12:50:15;34.30;81.90
23827;DHT22;12094;50.822;4.376;2023-09-07T12:52:43;33.70;83.20
23827;DHT22;12094;50.822;4.376;2023-09-07T12:55:12;33.50;83.80
23827;DHT22;12094;50.822;4.376;2023-09-07T12:57:39;33.60;84.30
23827;DHT22;12094;50.822;4.376;2023-09-07T13:00:09;33.70;84.60
23827;DHT22;12094;50.822;4.376;2023-09-07T13:02:38;34.60;82.90
23827;DHT22;12094;50.822;4.376;2023-09-07T13:05:06;35.20;80.80
23827;DHT22;12094;50.822;4.376;2023-09-07T13:07:34;35.60;79.60
23827;DHT22;12094;50.822;4.376;2023-09-07T13:10:04;35.80;78.30
23827;DHT22;12094;50.822;4.376;2023-09-07T13:12:33;35.70;77.20
23827;DHT22;12094;50.822;4.376;2023-09-07T13:15:04;35.50;77.40
23827;DHT22;12094;50.822;4.376;2023-09-07T13:17:34;35.50;77.90
23827;DHT22;12094;50.822;4.376;2023-09-07T13:20:02;35.40;79.00
23827;DHT22;12094;50.822;4.376;2023-09-07T13:22:33;35.90;78.30
23827;DHT22;12094;50.822;4.376;2023-09-07T13:25:01;36.20;77.00
23827;DHT22;12094;50.822;4.376;2023-09-07T13:27:28;35.80;77.30
23827;DHT22;12094;50.822;4.376;2023-09-07T13:29:57;35.80;77.70
23827;DHT22;12094;50.822;4.376;2023-09-07T13:32:25;35.90;76.90
23827;DHT22;12094;50.822;4.376;2023-09-07T13:34:54;35.90;77.10
23827;DHT22;12094;50.822;4.376;2023-09-07T13:37:21;36.10;76.20
23827;DHT22;12094;50.822;4.376;2023-09-07T13:39:49;35.70;77.20
23827;DHT22;12094;50.822;4.376;2023-09-07T13:42:18;36.10;76.20
23827;DHT22;12094;50.822;4.376;2023-09-07T13:44:45;36.20;75.30
23827;DHT22;12094;50.822;4.376;2023-09-07T13:47:15;36.20;75.70
23827;DHT22;12094;50.822;4.376;2023-09-07T13:49:43;36.30;75.90
23827;DHT22;12094;50.822;4.376;2023-09-07T13:52:10;36.60;75.50
23827;DHT22;12094;50.822;4.376;2023-09-07T13:54:38;36.90;75.60
23827;DHT22;12094;50.822;4.376;2023-09-07T13:57:06;36.50;75.20
23827;DHT22;12094;50.822;4.376;2023-09-07T13:59:37;36.10;74.70
23827;DHT22;12094;50.822;4.376;2023-09-07T14:02:08;35.60;75.90
23827;DHT22;12094;50.822;4.376;2023-09-07T14:04:39;34.70;76.70
23827;DHT22;12094;50.822;4.376;2023-09-07T14:07:09;33.80;80.00
23827;DHT22;12094;50.822;4.376;2023-09-07T14:09:36;33.10;82.20
23827;DHT22;12094;50.822;4.376;2023-09-07T14:12:05;32.20;84.10
23827;DHT22;12094;50.822;4.376;2023-09-07T14:14:33;31.80;85.90
23827;DHT22;12094;50.822;4.376;2023-09-07T14:17:01;31.40;87.80
23827;DHT22;12094;50.822;4.376;2023-09-07T14:19:33;31.30;89.10
23827;DHT22;12094;50.822;4.376;2023-09-07T14:22:04;31.40;88.80
23827;DHT22;12094;50.822;4.376;2023-09-07T14:24:31;31.50;86.60
23827;DHT22;12094;50.822;4.376;2023-09-07T14:27:00;31.50;86.80
23827;DHT22;12094;50.822;4.376;2023-09-07T14:29:32;31.60;86.80
23827;DHT22;12094;50.822;4.376;2023-09-07T14:32:04;31.50;86.90
23827;DHT22;12094;50.822;4.376;2023-09-07T14:34:32;31.50;86.80
23827;DHT22;12094;50.822;4.376;2023-09-07T14:37:02;31.50;86.90
23827;DHT22;12094;50.822;4.376;2023-09-07T14:39:35;31.50;86.40
23827;DHT22;12094;50.822;4.376;2023-09-07T14:42:04;31.50;86.10
23827;DHT22;12094;50.822;4.376;2023-09-07T14:44:39;31.50;86.50
23827;DHT22;12094;50.822;4.376;2023-09-07T14:47:12;31.30;87.20
23827;DHT22;12094;50.822;4.376;2023-09-07T14:53:18;31.00;88.10
23827;DHT22;12094;50.822;4.376;2023-09-07T14:56:02;30.90;88.20
23827;DHT22;12094;50.822;4.376;2023-09-07T14:58:34;30.80;88.60
23827;DHT22;12094;50.822;4.376;2023-09-07T15:01:03;30.70;89.10
23827;DHT22;12094;50.822;4.376;2023-09-07T15:03:34;30.60;89.00
23827;DHT22;12094;50.822;4.376;2023-09-07T15:06:07;30.70;88.80
23827;DHT22;12094;50.822;4.376;2023-09-07T15:08:34;30.90;90.10
23827;DHT22;12094;50.822;4.376;2023-09-07T15:11:05;30.90;90.70
23827;DHT22;12094;50.822;4.376;2023-09-07T15:13:34;30.90;91.20
23827;DHT22;12094;50.822;4.376;2023-09-07T15:16:01;30.90;91.80
23827;DHT22;12094;50.822;4.376;2023-09-07T15:18:29;30.90;92.00
23827;DHT22;12094;50.822;4.376;2023-09-07T15:20:58;30.90;91.90
23827;DHT22;12094;50.822;4.376;2023-09-07T15:23:25;30.90;92.10
23827;DHT22;12094;50.822;4.376;2023-09-07T15:25:54;30.80;92.30
23827;DHT22;12094;50.822;4.376;2023-09-07T15:28:22;30.80;92.20
23827;DHT22;12094;50.822;4.376;2023-09-07T15:30:50;30.80;92.20
23827;DHT22;12094;50.822;4.376;2023-09-07T15:33:18;30.60;92.80
23827;DHT22;12094;50.822;4.376;2023-09-07T15:35:46;30.60;93.10
23827;DHT22;12094;50.822;4.376;2023-09-07T15:38:13;30.40;93.80
23827;DHT22;12094;50.822;4.376;2023-09-07T15:40:42;30.40;93.90
23827;DHT22;12094;50.822;4.376;2023-09-07T15:43:16;30.40;93.90
23827;DHT22;12094;50.822;4.376;2023-09-07T15:45:46;30.40;94.10
23827;DHT22;12094;50.822;4.376;2023-09-07T15:48:13;30.40;94.00
23827;DHT22;12094;50.822;4.376;2023-09-07T15:50:41;30.40;94.10
23827;DHT22;12094;50.822;4.376;2023-09-07T15:53:09;30.40;94.30
23827;DHT22;12094;50.822;4.376;2023-09-07T15:55:38;30.20;94.80
23827;DHT22;12094;50.822;4.376;2023-09-07T15:58:07;30.30;94.90
23827;DHT22;12094;50.822;4.376;2023-09-07T16:00:36;30.30;95.00
23827;DHT22;12094;50.822;4.376;2023-09-07T16:03:05;30.10;95.30